Accueil
METAR-TAF:

METAR-TAF

Aéroports :

Aéroport de Caen - Carpiquet

Caen, France

latitude: 49-11N, longitude: 000-27W, altitude: 78 m

Observation

Le bulletin a été fait il y a 22 minutes, à 20:00 UTC
Vent calme
Température 11°C
Humidité 87%
Pression 1030 hPa
Visibilité 10 km ou plus
pas de nuages en-dessous de 1500 mètres et pas de cumulonimbus.

METAR: LFRK 062000Z AUTO 00000KT CAVOK 11/09 Q1030 NOSIG

Heure: 22:22 (20:22 UTC)

Prévision

Le bulletin a été fait il y a 6 heures et 22 minutes, à 14:00 UTC
Prévision valable du 06 à 15 UTC au 06 à 24 UTC
Vent 6 kt de ouest/sud-ouest
Visibilité 10 km ou plus
Nuages épars à une hauteur de 4000 ft

TAF: LFRK 061400Z 0615/0624 24006KT 9999 SCT040

Observations et prévisions météorologiques de plus de 4000 aéroports (messages METAR et TAF).

Les stations disponibles sont représentées par des disques jaunes et rouges sur la carte.

Passer la souris dessus pour voir le nom de la station.

Cliquer dessus pour voir les observations et prévisions météorologiques.

Pour changer de carte: cliquez sur les boutons verts avec une croix noire pour zoomer, sur le bouton vert avec un tiret pour effectuer un zoom arrière, ou sur les flèches vertes pour les cartes adjacentes.


METAR-TAF: